sensor_id;sensor_type;location;lat;lon;timestamp;P1;durP1;ratioP1;P2;durP2;ratioP2
25263;SDS011;13211;51.796;5.808;2023-04-25T00:05:03;8.40;;;3.45;;
25263;SDS011;13211;51.796;5.808;2023-04-25T00:07:33;11.07;;;3.25;;
25263;SDS011;13211;51.796;5.808;2023-04-25T00:10:02;16.40;;;3.75;;
25263;SDS011;13211;51.796;5.808;2023-04-25T00:12:30;13.70;;;3.20;;
25263;SDS011;13211;51.796;5.808;2023-04-25T00:14:58;10.55;;;3.85;;
25263;SDS011;13211;51.796;5.808;2023-04-25T00:17:26;16.73;;;3.90;;
25263;SDS011;13211;51.796;5.808;2023-04-25T00:19:54;13.88;;;4.28;;
25263;SDS011;13211;51.796;5.808;2023-04-25T00:22:22;15.63;;;4.00;;
25263;SDS011;13211;51.796;5.808;2023-04-25T00:24:50;10.98;;;3.83;;
25263;SDS011;13211;51.796;5.808;2023-04-25T00:27:20;16.07;;;3.80;;
25263;SDS011;13211;51.796;5.808;2023-04-25T00:29:48;10.85;;;3.17;;
25263;SDS011;13211;51.796;5.808;2023-04-25T00:32:17;18.85;;;4.75;;
25263;SDS011;13211;51.796;5.808;2023-04-25T00:34:45;11.55;;;4.30;;
25263;SDS011;13211;51.796;5.808;2023-04-25T00:37:14;12.77;;;4.25;;
25263;SDS011;13211;51.796;5.808;2023-04-25T00:39:43;16.50;;;5.10;;
25263;SDS011;13211;51.796;5.808;2023-04-25T00:42:11;14.65;;;4.55;;
25263;SDS011;13211;51.796;5.808;2023-04-25T00:44:39;19.85;;;4.90;;
25263;SDS011;13211;51.796;5.808;2023-04-25T00:47:07;20.20;;;4.65;;
25263;SDS011;13211;51.796;5.808;2023-04-25T00:49:35;15.32;;;5.20;;
25263;SDS011;13211;51.796;5.808;2023-04-25T00:52:03;19.52;;;5.10;;
25263;SDS011;13211;51.796;5.808;2023-04-25T00:54:31;15.98;;;4.82;;
25263;SDS011;13211;51.796;5.808;2023-04-25T00:56:59;17.58;;;6.15;;
25263;SDS011;13211;51.796;5.808;2023-04-25T00:59:28;19.73;;;5.38;;
25263;SDS011;13211;51.796;5.808;2023-04-25T01:01:58;13.35;;;4.70;;
25263;SDS011;13211;51.796;5.808;2023-04-25T01:04:27;22.30;;;5.88;;
25263;SDS011;13211;51.796;5.808;2023-04-25T01:06:55;21.38;;;5.80;;
25263;SDS011;13211;51.796;5.808;2023-04-25T01:09:23;28.17;;;5.75;;
25263;SDS011;13211;51.796;5.808;2023-04-25T01:11:51;39.88;;;8.40;;
25263;SDS011;13211;51.796;5.808;2023-04-25T01:14:19;19.52;;;5.63;;
25263;SDS011;13211;51.796;5.808;2023-04-25T01:16:47;19.80;;;5.28;;
25263;SDS011;13211;51.796;5.808;2023-04-25T01:19:16;15.73;;;5.15;;
25263;SDS011;13211;51.796;5.808;2023-04-25T01:21:45;15.55;;;5.35;;
25263;SDS011;13211;51.796;5.808;2023-04-25T01:24:18;18.05;;;5.13;;
25263;SDS011;13211;51.796;5.808;2023-04-25T01:26:50;14.10;;;5.32;;
25263;SDS011;13211;51.796;5.808;2023-04-25T01:29:28;15.25;;;5.35;;
25263;SDS011;13211;51.796;5.808;2023-04-25T01:31:57;16.58;;;5.72;;
25263;SDS011;13211;51.796;5.808;2023-04-25T01:34:25;13.52;;;5.25;;
25263;SDS011;13211;51.796;5.808;2023-04-25T01:36:56;17.20;;;6.03;;
25263;SDS011;13211;51.796;5.808;2023-04-25T01:39:27;23.20;;;5.65;;
25263;SDS011;13211;51.796;5.808;2023-04-25T01:41:55;20.95;;;5.72;;
25263;SDS011;13211;51.796;5.808;2023-04-25T01:44:24;15.20;;;6.13;;
25263;SDS011;13211;51.796;5.808;2023-04-25T01:46:53;21.85;;;6.50;;
25263;SDS011;13211;51.796;5.808;2023-04-25T01:49:21;19.02;;;6.50;;
25263;SDS011;13211;51.796;5.808;2023-04-25T01:51:49;24.35;;;6.25;;
25263;SDS011;13211;51.796;5.808;2023-04-25T01:54:17;23.83;;;6.20;;
25263;SDS011;13211;51.796;5.808;2023-04-25T01:56:50;21.00;;;6.55;;
25263;SDS011;13211;51.796;5.808;2023-04-25T01:59:19;20.65;;;5.68;;
25263;SDS011;13211;51.796;5.808;2023-04-25T02:01:48;21.10;;;6.63;;
25263;SDS011;13211;51.796;5.808;2023-04-25T02:04:25;22.58;;;6.82;;
25263;SDS011;13211;51.796;5.808;2023-04-25T02:06:54;24.55;;;7.30;;
25263;SDS011;13211;51.796;5.808;2023-04-25T02:09:28;28.50;;;6.43;;
25263;SDS011;13211;51.796;5.808;2023-04-25T02:11:57;20.80;;;6.45;;
25263;SDS011;13211;51.796;5.808;2023-04-25T02:14:51;23.85;;;6.65;;
25263;SDS011;13211;51.796;5.808;2023-04-25T02:17:35;24.80;;;6.57;;
25263;SDS011;13211;51.796;5.808;2023-04-25T02:20:02;23.00;;;6.32;;
25263;SDS011;13211;51.796;5.808;2023-04-25T02:22:31;23.15;;;6.60;;
25263;SDS011;13211;51.796;5.808;2023-04-25T02:25:00;24.80;;;6.68;;
25263;SDS011;13211;51.796;5.808;2023-04-25T02:27:29;27.35;;;7.45;;
25263;SDS011;13211;51.796;5.808;2023-04-25T02:29:57;17.35;;;5.82;;
25263;SDS011;13211;51.796;5.808;2023-04-25T02:32:25;25.50;;;5.95;;
25263;SDS011;13211;51.796;5.808;2023-04-25T02:34:53;18.25;;;7.10;;
25263;SDS011;13211;51.796;5.808;2023-04-25T02:37:22;20.08;;;6.45;;
25263;SDS011;13211;51.796;5.808;2023-04-25T02:39:49;19.35;;;6.88;;
25263;SDS011;13211;51.796;5.808;2023-04-25T02:42:17;27.15;;;6.22;;
25263;SDS011;13211;51.796;5.808;2023-04-25T02:44:45;25.02;;;6.25;;
25263;SDS011;13211;51.796;5.808;2023-04-25T02:47:15;27.35;;;6.07;;
25263;SDS011;13211;51.796;5.808;2023-04-25T02:49:45;25.05;;;5.40;;
25263;SDS011;13211;51.796;5.808;2023-04-25T02:52:17;22.63;;;6.15;;
25263;SDS011;13211;51.796;5.808;2023-04-25T02:54:53;23.08;;;5.50;;
25263;SDS011;13211;51.796;5.808;2023-04-25T02:57:20;21.20;;;6.32;;
25263;SDS011;13211;51.796;5.808;2023-04-25T02:59:48;26.65;;;6.15;;
25263;SDS011;13211;51.796;5.808;2023-04-25T03:02:16;21.83;;;6.22;;
25263;SDS011;13211;51.796;5.808;2023-04-25T03:04:44;26.88;;;6.13;;
25263;SDS011;13211;51.796;5.808;2023-04-25T03:07:15;17.35;;;5.20;;
25263;SDS011;13211;51.796;5.808;2023-04-25T03:09:47;19.90;;;5.05;;
25263;SDS011;13211;51.796;5.808;2023-04-25T03:12:15;24.02;;;5.80;;
25263;SDS011;13211;51.796;5.808;2023-04-25T03:14:45;25.27;;;6.90;;
25263;SDS011;13211;51.796;5.808;2023-04-25T03:17:14;23.17;;;6.20;;
25263;SDS011;13211;51.796;5.808;2023-04-25T03:19:43;21.90;;;6.05;;
25263;SDS011;13211;51.796;5.808;2023-04-25T03:22:12;30.52;;;6.55;;
25263;SDS011;13211;51.796;5.808;2023-04-25T03:24:40;25.65;;;6.25;;
25263;SDS011;13211;51.796;5.808;2023-04-25T03:27:08;25.98;;;6.50;;
25263;SDS011;13211;51.796;5.808;2023-04-25T03:29:36;21.67;;;6.45;;
25263;SDS011;13211;51.796;5.808;2023-04-25T03:32:05;29.13;;;6.72;;
25263;SDS011;13211;51.796;5.808;2023-04-25T03:34:32;22.70;;;6.07;;
25263;SDS011;13211;51.796;5.808;2023-04-25T03:37:01;23.83;;;6.20;;
25263;SDS011;13211;51.796;5.808;2023-04-25T03:39:36;27.00;;;6.97;;
25263;SDS011;13211;51.796;5.808;2023-04-25T03:42:06;22.83;;;6.38;;
25263;SDS011;13211;51.796;5.808;2023-04-25T03:44:34;24.63;;;6.72;;
25263;SDS011;13211;51.796;5.808;2023-04-25T03:47:05;19.42;;;5.88;;
25263;SDS011;13211;51.796;5.808;2023-04-25T03:49:33;25.60;;;7.45;;
25263;SDS011;13211;51.796;5.808;2023-04-25T03:52:04;22.48;;;7.18;;
25263;SDS011;13211;51.796;5.808;2023-04-25T03:54:37;24.77;;;7.57;;
25263;SDS011;13211;51.796;5.808;2023-04-25T03:57:17;21.35;;;6.82;;
25263;SDS011;13211;51.796;5.808;2023-04-25T03:59:47;23.23;;;6.55;;
25263;SDS011;13211;51.796;5.808;2023-04-25T04:02:15;29.33;;;7.63;;
25263;SDS011;13211;51.796;5.808;2023-04-25T04:04:47;32.30;;;8.13;;
25263;SDS011;13211;51.796;5.808;2023-04-25T04:07:16;28.70;;;7.57;;
25263;SDS011;13211;51.796;5.808;2023-04-25T04:09:47;29.70;;;7.28;;
25263;SDS011;13211;51.796;5.808;2023-04-25T04:12:23;25.45;;;7.60;;
25263;SDS011;13211;51.796;5.808;2023-04-25T04:14:52;30.02;;;8.43;;
25263;SDS011;13211;51.796;5.808;2023-04-25T04:17:24;21.42;;;8.40;;
25263;SDS011;13211;51.796;5.808;2023-04-25T04:19:52;38.50;;;9.02;;
25263;SDS011;13211;51.796;5.808;2023-04-25T04:22:20;22.98;;;7.78;;
25263;SDS011;13211;51.796;5.808;2023-04-25T04:24:55;26.65;;;7.70;;
25263;SDS011;13211;51.796;5.808;2023-04-25T04:27:49;27.33;;;7.85;;
25263;SDS011;13211;51.796;5.808;2023-04-25T04:30:38;29.38;;;8.02;;
25263;SDS011;13211;51.796;5.808;2023-04-25T04:33:08;25.58;;;7.32;;
25263;SDS011;13211;51.796;5.808;2023-04-25T04:35:40;22.08;;;7.05;;
25263;SDS011;13211;51.796;5.808;2023-04-25T04:38:10;30.45;;;7.75;;
25263;SDS011;13211;51.796;5.808;2023-04-25T04:40:38;20.13;;;7.07;;
25263;SDS011;13211;51.796;5.808;2023-04-25T04:43:12;17.50;;;6.03;;
25263;SDS011;13211;51.796;5.808;2023-04-25T04:46:02;25.38;;;7.40;;
25263;SDS011;13211;51.796;5.808;2023-04-25T04:48:49;27.35;;;7.88;;
25263;SDS011;13211;51.796;5.808;2023-04-25T04:51:42;29.98;;;7.50;;
25263;SDS011;13211;51.796;5.808;2023-04-25T04:54:35;29.35;;;7.97;;
25263;SDS011;13211;51.796;5.808;2023-04-25T04:57:13;25.85;;;7.97;;
25263;SDS011;13211;51.796;5.808;2023-04-25T05:00:22;29.77;;;7.30;;
25263;SDS011;13211;51.796;5.808;2023-04-25T05:03:15;28.08;;;7.15;;
25263;SDS011;13211;51.796;5.808;2023-04-25T05:06:02;29.98;;;7.72;;
25263;SDS011;13211;51.796;5.808;2023-04-25T05:08:58;24.65;;;7.53;;
25263;SDS011;13211;51.796;5.808;2023-04-25T05:11:48;26.33;;;7.10;;
25263;SDS011;13211;51.796;5.808;2023-04-25T05:14:45;24.45;;;7.25;;
25263;SDS011;13211;51.796;5.808;2023-04-25T05:17:36;28.20;;;6.80;;
25263;SDS011;13211;51.796;5.808;2023-04-25T05:20:24;27.25;;;7.85;;
25263;SDS011;13211;51.796;5.808;2023-04-25T05:23:06;27.13;;;7.22;;
25263;SDS011;13211;51.796;5.808;2023-04-25T05:25:54;27.20;;;8.43;;
25263;SDS011;13211;51.796;5.808;2023-04-25T05:28:43;29.65;;;7.38;;
25263;SDS011;13211;51.796;5.808;2023-04-25T05:31:22;22.23;;;6.73;;
25263;SDS011;13211;51.796;5.808;2023-04-25T05:34:00;27.35;;;6.68;;
25263;SDS011;13211;51.796;5.808;2023-04-25T05:36:40;34.72;;;6.13;;
25263;SDS011;13211;51.796;5.808;2023-04-25T05:39:08;24.88;;;7.13;;
25263;SDS011;13211;51.796;5.808;2023-04-25T05:42:05;23.48;;;5.93;;
25263;SDS011;13211;51.796;5.808;2023-04-25T05:44:53;24.92;;;6.68;;
25263;SDS011;13211;51.796;5.808;2023-04-25T05:47:31;25.65;;;5.75;;
25263;SDS011;13211;51.796;5.808;2023-04-25T05:50:09;22.60;;;5.90;;
25263;SDS011;13211;51.796;5.808;2023-04-25T05:52:57;28.00;;;5.15;;
25263;SDS011;13211;51.796;5.808;2023-04-25T05:55:31;24.70;;;5.82;;
25263;SDS011;13211;51.796;5.808;2023-04-25T05:58:06;24.98;;;5.57;;
25263;SDS011;13211;51.796;5.808;2023-04-25T06:00:34;30.67;;;6.18;;
25263;SDS011;13211;51.796;5.808;2023-04-25T06:03:02;15.65;;;4.85;;
25263;SDS011;13211;51.796;5.808;2023-04-25T06:05:31;15.95;;;5.10;;
25263;SDS011;13211;51.796;5.808;2023-04-25T06:07:58;23.23;;;4.55;;
25263;SDS011;13211;51.796;5.808;2023-04-25T06:10:31;19.70;;;4.93;;
25263;SDS011;13211;51.796;5.808;2023-04-25T06:12:59;12.75;;;4.03;;
25263;SDS011;13211;51.796;5.808;2023-04-25T06:15:28;15.65;;;3.95;;
25263;SDS011;13211;51.796;5.808;2023-04-25T06:17:56;19.83;;;4.53;;
25263;SDS011;13211;51.796;5.808;2023-04-25T06:20:24;17.70;;;3.95;;
25263;SDS011;13211;51.796;5.808;2023-04-25T06:22:55;13.85;;;3.30;;
25263;SDS011;13211;51.796;5.808;2023-04-25T06:25:35;18.02;;;3.55;;
25263;SDS011;13211;51.796;5.808;2023-04-25T06:28:04;20.90;;;3.58;;
25263;SDS011;13211;51.796;5.808;2023-04-25T06:30:31;14.02;;;3.42;;
25263;SDS011;13211;51.796;5.808;2023-04-25T06:33:05;15.90;;;3.95;;
25263;SDS011;13211;51.796;5.808;2023-04-25T06:35:37;18.35;;;2.75;;
25263;SDS011;13211;51.796;5.808;2023-04-25T06:38:09;14.18;;;3.08;;
25263;SDS011;13211;51.796;5.808;2023-04-25T06:40:39;22.25;;;3.28;;
25263;SDS011;13211;51.796;5.808;2023-04-25T06:43:08;12.02;;;2.58;;
25263;SDS011;13211;51.796;5.808;2023-04-25T06:45:55;13.13;;;2.35;;
25263;SDS011;13211;51.796;5.808;2023-04-25T06:48:27;14.75;;;2.90;;
25263;SDS011;13211;51.796;5.808;2023-04-25T06:53:25;10.85;;;2.90;;
25263;SDS011;13211;51.796;5.808;2023-04-25T06:55:58;18.40;;;2.40;;
25263;SDS011;13211;51.796;5.808;2023-04-25T06:58:40;22.10;;;2.70;;
25263;SDS011;13211;51.796;5.808;2023-04-25T07:01:12;12.18;;;2.75;;
25263;SDS011;13211;51.796;5.808;2023-04-25T07:03:40;16.33;;;2.40;;
25263;SDS011;13211;51.796;5.808;2023-04-25T07:06:16;23.42;;;3.10;;
25263;SDS011;13211;51.796;5.808;2023-04-25T07:08:48;18.33;;;2.28;;
25263;SDS011;13211;51.796;5.808;2023-04-25T07:11:17;10.25;;;2.75;;
25263;SDS011;13211;51.796;5.808;2023-04-25T07:13:47;12.40;;;2.10;;
25263;SDS011;13211;51.796;5.808;2023-04-25T07:16:15;12.70;;;2.17;;
25263;SDS011;13211;51.796;5.808;2023-04-25T07:18:45;21.83;;;2.40;;
25263;SDS011;13211;51.796;5.808;2023-04-25T07:21:14;21.25;;;2.60;;
25263;SDS011;13211;51.796;5.808;2023-04-25T07:23:44;14.15;;;2.72;;
25263;SDS011;13211;51.796;5.808;2023-04-25T07:26:17;9.77;;;2.47;;
25263;SDS011;13211;51.796;5.808;2023-04-25T07:29:04;14.80;;;2.47;;
25263;SDS011;13211;51.796;5.808;2023-04-25T07:31:35;12.52;;;2.25;;
25263;SDS011;13211;51.796;5.808;2023-04-25T07:34:03;10.75;;;2.33;;
25263;SDS011;13211;51.796;5.808;2023-04-25T07:36:32;16.13;;;2.30;;
25263;SDS011;13211;51.796;5.808;2023-04-25T07:39:00;19.27;;;2.42;;
25263;SDS011;13211;51.796;5.808;2023-04-25T07:41:29;19.17;;;3.60;;
25263;SDS011;13211;51.796;5.808;2023-04-25T07:43:59;11.95;;;2.22;;
25263;SDS011;13211;51.796;5.808;2023-04-25T07:46:29;13.48;;;2.55;;
25263;SDS011;13211;51.796;5.808;2023-04-25T07:48:57;10.65;;;1.70;;
25263;SDS011;13211;51.796;5.808;2023-04-25T07:51:25;16.50;;;2.63;;
25263;SDS011;13211;51.796;5.808;2023-04-25T07:53:56;15.73;;;2.10;;
25263;SDS011;13211;51.796;5.808;2023-04-25T07:56:24;12.27;;;2.30;;
25263;SDS011;13211;51.796;5.808;2023-04-25T07:58:52;18.65;;;2.33;;
25263;SDS011;13211;51.796;5.808;2023-04-25T08:01:23;16.63;;;2.10;;
25263;SDS011;13211;51.796;5.808;2023-04-25T08:03:57;13.15;;;2.30;;
25263;SDS011;13211;51.796;5.808;2023-04-25T08:06:32;10.75;;;2.20;;
25263;SDS011;13211;51.796;5.808;2023-04-25T08:09:07;11.70;;;1.75;;
25263;SDS011;13211;51.796;5.808;2023-04-25T08:11:38;16.08;;;2.03;;
25263;SDS011;13211;51.796;5.808;2023-04-25T08:14:08;11.45;;;1.85;;
25263;SDS011;13211;51.796;5.808;2023-04-25T08:16:37;10.98;;;1.60;;
25263;SDS011;13211;51.796;5.808;2023-04-25T08:19:06;8.70;;;1.90;;
25263;SDS011;13211;51.796;5.808;2023-04-25T08:21:34;11.75;;;2.05;;
25263;SDS011;13211;51.796;5.808;2023-04-25T08:24:07;14.13;;;2.10;;
25263;SDS011;13211;51.796;5.808;2023-04-25T08:26:37;9.73;;;1.42;;
25263;SDS011;13211;51.796;5.808;2023-04-25T08:29:07;9.52;;;2.13;;
25263;SDS011;13211;51.796;5.808;2023-04-25T08:31:38;14.85;;;1.80;;
25263;SDS011;13211;51.796;5.808;2023-04-25T08:34:07;7.88;;;1.75;;
25263;SDS011;13211;51.796;5.808;2023-04-25T08:36:41;11.75;;;1.70;;
25263;SDS011;13211;51.796;5.808;2023-04-25T08:39:23;13.50;;;2.13;;
25263;SDS011;13211;51.796;5.808;2023-04-25T08:42:18;15.60;;;2.05;;
25263;SDS011;13211;51.796;5.808;2023-04-25T08:44:48;12.32;;;2.00;;
25263;SDS011;13211;51.796;5.808;2023-04-25T08:47:18;15.88;;;1.88;;
25263;SDS011;13211;51.796;5.808;2023-04-25T08:49:53;12.05;;;1.83;;
25263;SDS011;13211;51.796;5.808;2023-04-25T08:52:23;15.30;;;1.70;;
25263;SDS011;13211;51.796;5.808;2023-04-25T08:54:53;8.82;;;2.10;;
25263;SDS011;13211;51.796;5.808;2023-04-25T08:57:22;16.10;;;1.90;;
25263;SDS011;13211;51.796;5.808;2023-04-25T08:59:52;11.63;;;1.98;;
25263;SDS011;13211;51.796;5.808;2023-04-25T09:02:22;6.80;;;1.25;;
25263;SDS011;13211;51.796;5.808;2023-04-25T09:04:53;10.20;;;1.50;;
25263;SDS011;13211;51.796;5.808;2023-04-25T09:07:25;15.13;;;1.77;;
25263;SDS011;13211;51.796;5.808;2023-04-25T09:09:53;12.90;;;1.48;;
25263;SDS011;13211;51.796;5.808;2023-04-25T09:12:22;8.60;;;1.63;;
25263;SDS011;13211;51.796;5.808;2023-04-25T09:17:57;12.18;;;1.70;;
25263;SDS011;13211;51.796;5.808;2023-04-25T09:20:31;7.10;;;1.30;;
25263;SDS011;13211;51.796;5.808;2023-04-25T09:23:05;9.90;;;1.50;;
25263;SDS011;13211;51.796;5.808;2023-04-25T09:25:37;9.30;;;1.48;;
25263;SDS011;13211;51.796;5.808;2023-04-25T09:28:10;10.60;;;1.38;;
25263;SDS011;13211;51.796;5.808;2023-04-25T09:30:39;7.67;;;1.30;;
25263;SDS011;13211;51.796;5.808;2023-04-25T09:33:16;7.10;;;1.17;;
25263;SDS011;13211;51.796;5.808;2023-04-25T09:35:49;13.32;;;1.80;;
25263;SDS011;13211;51.796;5.808;2023-04-25T09:38:41;11.90;;;1.50;;
25263;SDS011;13211;51.796;5.808;2023-04-25T09:41:15;11.18;;;2.03;;
25263;SDS011;13211;51.796;5.808;2023-04-25T09:43:56;8.48;;;1.30;;
25263;SDS011;13211;51.796;5.808;2023-04-25T09:46:34;7.07;;;1.58;;
25263;SDS011;13211;51.796;5.808;2023-04-25T09:49:12;9.98;;;1.60;;
25263;SDS011;13211;51.796;5.808;2023-04-25T09:51:55;7.53;;;1.45;;
25263;SDS011;13211;51.796;5.808;2023-04-25T09:54:27;12.68;;;1.58;;
25263;SDS011;13211;51.796;5.808;2023-04-25T09:57:16;9.15;;;1.27;;
25263;SDS011;13211;51.796;5.808;2023-04-25T09:59:52;9.52;;;1.55;;
25263;SDS011;13211;51.796;5.808;2023-04-25T10:02:23;9.23;;;1.10;;
25263;SDS011;13211;51.796;5.808;2023-04-25T10:04:55;5.35;;;0.98;;
25263;SDS011;13211;51.796;5.808;2023-04-25T10:07:30;7.60;;;1.20;;
25263;SDS011;13211;51.796;5.808;2023-04-25T10:10:01;7.88;;;1.52;;
25263;SDS011;13211;51.796;5.808;2023-04-25T10:12:30;11.50;;;1.70;;
25263;SDS011;13211;51.796;5.808;2023-04-25T10:14:58;10.75;;;2.13;;
25263;SDS011;13211;51.796;5.808;2023-04-25T10:17:27;9.07;;;1.27;;
25263;SDS011;13211;51.796;5.808;2023-04-25T10:19:55;6.80;;;1.52;;
25263;SDS011;13211;51.796;5.808;2023-04-25T10:22:26;9.30;;;1.27;;
25263;SDS011;13211;51.796;5.808;2023-04-25T10:24:57;5.13;;;1.15;;
25263;SDS011;13211;51.796;5.808;2023-04-25T10:27:29;7.07;;;1.67;;
25263;SDS011;13211;51.796;5.808;2023-04-25T10:30:00;9.10;;;1.10;;
25263;SDS011;13211;51.796;5.808;2023-04-25T10:32:31;8.43;;;1.40;;
25263;SDS011;13211;51.796;5.808;2023-04-25T10:35:09;6.13;;;1.23;;
25263;SDS011;13211;51.796;5.808;2023-04-25T10:37:42;7.93;;;1.30;;
25263;SDS011;13211;51.796;5.808;2023-04-25T10:40:24;8.10;;;1.30;;
25263;SDS011;13211;51.796;5.808;2023-04-25T10:42:53;7.95;;;1.58;;
25263;SDS011;13211;51.796;5.808;2023-04-25T10:45:24;3.97;;;0.90;;
25263;SDS011;13211;51.796;5.808;2023-04-25T10:47:56;8.90;;;1.20;;
25263;SDS011;13211;51.796;5.808;2023-04-25T10:50:37;10.35;;;1.38;;
25263;SDS011;13211;51.796;5.808;2023-04-25T10:53:15;6.20;;;1.55;;
25263;SDS011;13211;51.796;5.808;2023-04-25T10:55:53;6.90;;;1.40;;
25263;SDS011;13211;51.796;5.808;2023-04-25T10:58:22;11.38;;;1.50;;
25263;SDS011;13211;51.796;5.808;2023-04-25T11:00:51;11.85;;;2.08;;
25263;SDS011;13211;51.796;5.808;2023-04-25T11:03:23;5.85;;;1.48;;
25263;SDS011;13211;51.796;5.808;2023-04-25T11:05:55;9.98;;;1.88;;
25263;SDS011;13211;51.796;5.808;2023-04-25T11:11:20;6.25;;;1.17;;
25263;SDS011;13211;51.796;5.808;2023-04-25T11:13:51;11.25;;;1.35;;
25263;SDS011;13211;51.796;5.808;2023-04-25T11:16:18;8.20;;;1.88;;
25263;SDS011;13211;51.796;5.808;2023-04-25T11:18:53;7.85;;;1.20;;
25263;SDS011;13211;51.796;5.808;2023-04-25T11:21:27;7.15;;;1.25;;
25263;SDS011;13211;51.796;5.808;2023-04-25T11:23:56;7.43;;;1.60;;
25263;SDS011;13211;51.796;5.808;2023-04-25T11:26:24;8.20;;;1.48;;
25263;SDS011;13211;51.796;5.808;2023-04-25T11:28:56;11.48;;;1.55;;
25263;SDS011;13211;51.796;5.808;2023-04-25T11:31:25;11.90;;;1.88;;
25263;SDS011;13211;51.796;5.808;2023-04-25T11:33:54;6.47;;;1.00;;
25263;SDS011;13211;51.796;5.808;2023-04-25T11:38:54;5.28;;;1.08;;
25263;SDS011;13211;51.796;5.808;2023-04-25T11:41:25;8.10;;;1.40;;
25263;SDS011;13211;51.796;5.808;2023-04-25T11:43:56;5.80;;;1.38;;
25263;SDS011;13211;51.796;5.808;2023-04-25T11:46:24;9.80;;;1.45;;
25263;SDS011;13211;51.796;5.808;2023-04-25T11:48:52;6.63;;;1.10;;
25263;SDS011;13211;51.796;5.808;2023-04-25T11:51:23;6.10;;;1.60;;
25263;SDS011;13211;51.796;5.808;2023-04-25T11:53:54;5.82;;;1.17;;
25263;SDS011;13211;51.796;5.808;2023-04-25T11:56:22;3.10;;;0.88;;
25263;SDS011;13211;51.796;5.808;2023-04-25T11:59:01;9.52;;;1.52;;
25263;SDS011;13211;51.796;5.808;2023-04-25T12:01:33;6.10;;;1.17;;
25263;SDS011;13211;51.796;5.808;2023-04-25T12:06:50;6.20;;;1.02;;
25263;SDS011;13211;51.796;5.808;2023-04-25T12:09:19;7.18;;;1.30;;
25263;SDS011;13211;51.796;5.808;2023-04-25T12:11:54;10.85;;;1.60;;
25263;SDS011;13211;51.796;5.808;2023-04-25T12:16:54;4.88;;;1.20;;
25263;SDS011;13211;51.796;5.808;2023-04-25T12:19:24;7.63;;;1.25;;
25263;SDS011;13211;51.796;5.808;2023-04-25T12:21:53;6.95;;;1.02;;
25263;SDS011;13211;51.796;5.808;2023-04-25T12:24:25;7.18;;;1.40;;
25263;SDS011;13211;51.796;5.808;2023-04-25T12:27:05;8.93;;;1.35;;
25263;SDS011;13211;51.796;5.808;2023-04-25T12:32:16;5.57;;;1.30;;
25263;SDS011;13211;51.796;5.808;2023-04-25T12:34:45;7.47;;;1.55;;
25263;SDS011;13211;51.796;5.808;2023-04-25T12:37:15;5.20;;;1.05;;
25263;SDS011;13211;51.796;5.808;2023-04-25T12:39:46;6.55;;;1.23;;
25263;SDS011;13211;51.796;5.808;2023-04-25T12:42:14;2.25;;;1.05;;
25263;SDS011;13211;51.796;5.808;2023-04-25T12:44:43;10.73;;;1.25;;
25263;SDS011;13211;51.796;5.808;2023-04-25T12:47:11;3.55;;;1.17;;
25263;SDS011;13211;51.796;5.808;2023-04-25T12:49:39;5.90;;;1.20;;
25263;SDS011;13211;51.796;5.808;2023-04-25T12:52:07;7.00;;;1.25;;
25263;SDS011;13211;51.796;5.808;2023-04-25T12:54:35;7.75;;;1.25;;
25263;SDS011;13211;51.796;5.808;2023-04-25T12:57:02;7.43;;;1.33;;
25263;SDS011;13211;51.796;5.808;2023-04-25T12:59:31;7.25;;;1.40;;
25263;SDS011;13211;51.796;5.808;2023-04-25T13:01:59;9.80;;;1.40;;
25263;SDS011;13211;51.796;5.808;2023-04-25T13:04:30;7.90;;;1.63;;
25263;SDS011;13211;51.796;5.808;2023-04-25T13:07:04;7.68;;;1.20;;
25263;SDS011;13211;51.796;5.808;2023-04-25T13:09:32;6.40;;;1.48;;
25263;SDS011;13211;51.796;5.808;2023-04-25T13:12:00;4.47;;;0.90;;
25263;SDS011;13211;51.796;5.808;2023-04-25T13:14:29;4.97;;;0.90;;
25263;SDS011;13211;51.796;5.808;2023-04-25T13:16:57;7.60;;;1.08;;
25263;SDS011;13211;51.796;5.808;2023-04-25T13:19:26;4.43;;;0.90;;
25263;SDS011;13211;51.796;5.808;2023-04-25T13:21:55;6.75;;;1.17;;
25263;SDS011;13211;51.796;5.808;2023-04-25T13:24:23;6.90;;;1.10;;
25263;SDS011;13211;51.796;5.808;2023-04-25T13:26:52;8.48;;;1.02;;
25263;SDS011;13211;51.796;5.808;2023-04-25T13:29:20;7.18;;;1.20;;
25263;SDS011;13211;51.796;5.808;2023-04-25T13:31:48;6.78;;;1.00;;
25263;SDS011;13211;51.796;5.808;2023-04-25T13:34:17;4.53;;;1.20;;
25263;SDS011;13211;51.796;5.808;2023-04-25T13:36:45;5.55;;;1.17;;
25263;SDS011;13211;51.796;5.808;2023-04-25T13:39:14;7.43;;;1.10;;
25263;SDS011;13211;51.796;5.808;2023-04-25T13:41:43;5.75;;;1.10;;
25263;SDS011;13211;51.796;5.808;2023-04-25T13:44:10;5.78;;;1.17;;
25263;SDS011;13211;51.796;5.808;2023-04-25T13:46:38;5.15;;;0.90;;
25263;SDS011;13211;51.796;5.808;2023-04-25T13:49:13;6.07;;;0.90;;
25263;SDS011;13211;51.796;5.808;2023-04-25T13:51:42;4.18;;;1.00;;
25263;SDS011;13211;51.796;5.808;2023-04-25T13:54:14;8.85;;;0.90;;
25263;SDS011;13211;51.796;5.808;2023-04-25T13:56:43;7.10;;;1.73;;
25263;SDS011;13211;51.796;5.808;2023-04-25T13:59:11;5.80;;;1.00;;
25263;SDS011;13211;51.796;5.808;2023-04-25T14:01:40;3.50;;;0.98;;
25263;SDS011;13211;51.796;5.808;2023-04-25T14:06:49;3.63;;;0.82;;
25263;SDS011;13211;51.796;5.808;2023-04-25T14:09:19;6.63;;;1.23;;
25263;SDS011;13211;51.796;5.808;2023-04-25T14:11:52;5.50;;;1.05;;
25263;SDS011;13211;51.796;5.808;2023-04-25T14:14:22;7.20;;;2.30;;
25263;SDS011;13211;51.796;5.808;2023-04-25T14:16:53;7.15;;;1.10;;
25263;SDS011;13211;51.796;5.808;2023-04-25T14:19:24;6.22;;;0.95;;
25263;SDS011;13211;51.796;5.808;2023-04-25T14:21:52;3.17;;;1.08;;
25263;SDS011;13211;51.796;5.808;2023-04-25T14:24:19;2.15;;;0.75;;
25263;SDS011;13211;51.796;5.808;2023-04-25T14:26:47;5.65;;;1.10;;
25263;SDS011;13211;51.796;5.808;2023-04-25T14:29:19;5.03;;;1.00;;
25263;SDS011;13211;51.796;5.808;2023-04-25T14:31:49;3.55;;;0.82;;
25263;SDS011;13211;51.796;5.808;2023-04-25T14:34:20;3.95;;;0.88;;
25263;SDS011;13211;51.796;5.808;2023-04-25T14:36:48;7.65;;;1.13;;
25263;SDS011;13211;51.796;5.808;2023-04-25T14:39:17;3.78;;;0.80;;
25263;SDS011;13211;51.796;5.808;2023-04-25T14:41:45;4.43;;;0.90;;
25263;SDS011;13211;51.796;5.808;2023-04-25T14:44:14;6.13;;;1.10;;
25263;SDS011;13211;51.796;5.808;2023-04-25T14:46:43;7.22;;;1.27;;
25263;SDS011;13211;51.796;5.808;2023-04-25T14:51:42;5.45;;;1.00;;
25263;SDS011;13211;51.796;5.808;2023-04-25T14:54:11;6.10;;;1.30;;
25263;SDS011;13211;51.796;5.808;2023-04-25T14:56:39;8.15;;;1.50;;
25263;SDS011;13211;51.796;5.808;2023-04-25T14:59:06;6.30;;;1.83;;
25263;SDS011;13211;51.796;5.808;2023-04-25T15:01:35;9.48;;;1.77;;
25263;SDS011;13211;51.796;5.808;2023-04-25T15:04:03;9.48;;;1.45;;
25263;SDS011;13211;51.796;5.808;2023-04-25T15:06:32;7.18;;;1.10;;
25263;SDS011;13211;51.796;5.808;2023-04-25T15:09:00;8.02;;;1.10;;
25263;SDS011;13211;51.796;5.808;2023-04-25T15:11:28;9.13;;;1.58;;
25263;SDS011;13211;51.796;5.808;2023-04-25T15:13:56;4.45;;;1.30;;
25263;SDS011;13211;51.796;5.808;2023-04-25T15:16:25;8.95;;;1.42;;
25263;SDS011;13211;51.796;5.808;2023-04-25T15:18:53;7.82;;;1.30;;
25263;SDS011;13211;51.796;5.808;2023-04-25T15:21:21;5.60;;;1.60;;
25263;SDS011;13211;51.796;5.808;2023-04-25T15:23:49;9.02;;;1.40;;
25263;SDS011;13211;51.796;5.808;2023-04-25T15:26:18;7.90;;;1.25;;
25263;SDS011;13211;51.796;5.808;2023-04-25T15:28:47;7.97;;;1.33;;
25263;SDS011;13211;51.796;5.808;2023-04-25T15:31:15;8.90;;;1.10;;
25263;SDS011;13211;51.796;5.808;2023-04-25T15:33:44;6.40;;;1.27;;
25263;SDS011;13211;51.796;5.808;2023-04-25T15:36:12;7.13;;;1.30;;